createdAt,value
2023-04-08T00:00:34.000Z,5.8
2023-04-08T00:01:51.000Z,6
2023-04-08T00:03:07.000Z,5.6
2023-04-08T00:04:22.000Z,5.8
2023-04-08T00:05:39.392Z,6
2023-04-08T00:06:55.000Z,5.4
2023-04-08T00:08:11.000Z,5.5
2023-04-08T00:09:28.000Z,5.8
2023-04-08T00:10:44.000Z,6.1
2023-04-08T00:12:00.000Z,6.1
2023-04-08T00:13:15.000Z,6
2023-04-08T00:14:31.000Z,6.1
2023-04-08T00:15:47.000Z,6.2
2023-04-08T00:17:02.000Z,6.4
2023-04-08T00:18:18.000Z,6.3
2023-04-08T00:19:34.000Z,6.6
2023-04-08T00:20:50.000Z,6.2
2023-04-08T00:22:06.000Z,6.6
2023-04-08T00:23:23.000Z,6.9
2023-04-08T00:24:39.000Z,6.5
2023-04-08T00:25:55.000Z,6.8
2023-04-08T00:27:12.000Z,6.7
2023-04-08T00:28:28.000Z,6.8
2023-04-08T00:29:44.000Z,6
2023-04-08T00:31:00.000Z,5.8
2023-04-08T00:32:17.000Z,6.2
2023-04-08T00:33:33.000Z,5.9
2023-04-08T00:34:48.000Z,5.9
2023-04-08T00:36:05.000Z,6.2
2023-04-08T00:37:21.679Z,5.4
2023-04-08T00:38:37.000Z,5.6
2023-04-08T00:39:54.000Z,5.8
2023-04-08T00:41:10.000Z,5.8
2023-04-08T00:42:26.000Z,5.4
2023-04-08T00:43:41.000Z,5.5
2023-04-08T00:44:57.456Z,5.3
2023-04-08T00:46:13.000Z,5.4
2023-04-08T00:47:28.000Z,5.6
2023-04-08T00:48:44.000Z,5.9
2023-04-08T00:50:00.629Z,6.3
2023-04-08T00:51:16.000Z,6.1
2023-04-08T00:52:32.000Z,5.5
2023-04-08T00:53:49.000Z,6
2023-04-08T00:55:05.000Z,5.8
2023-04-08T00:56:21.000Z,6.8
2023-04-08T00:57:38.000Z,5.6
2023-04-08T00:58:54.000Z,5.4
2023-04-08T01:00:10.000Z,6.4
2023-04-08T01:01:26.000Z,6
2023-04-08T01:02:43.000Z,5.8
2023-04-08T01:03:59.000Z,5.4
2023-04-08T01:05:14.000Z,5.5
2023-04-08T01:06:31.000Z,5.2
2023-04-08T01:07:47.000Z,5.1
2023-04-08T01:09:03.000Z,5.2
2023-04-08T01:10:20.000Z,5.2
2023-04-08T01:11:36.000Z,5
2023-04-08T01:12:52.000Z,5.8
2023-04-08T01:14:07.000Z,5.1
2023-04-08T01:15:23.463Z,5.5
2023-04-08T01:16:39.000Z,5.4
2023-04-08T01:17:54.000Z,5.2
2023-04-08T01:19:10.000Z,5.4
2023-04-08T01:20:26.000Z,5.2
2023-04-08T01:21:42.000Z,5.3
2023-04-08T01:22:58.000Z,5.1
2023-04-08T01:24:15.000Z,5.4
2023-04-08T01:25:31.000Z,5.2
2023-04-08T01:26:47.000Z,5.5
2023-04-08T01:28:04.000Z,4.7
2023-04-08T01:29:20.000Z,5.4
2023-04-08T01:30:36.000Z,4.9
2023-04-08T01:31:53.223Z,4.6
2023-04-08T01:33:09.000Z,5
2023-04-08T01:34:25.000Z,5.4
2023-04-08T01:35:40.000Z,4.9
2023-04-08T01:36:57.000Z,5
2023-04-08T01:38:13.000Z,5.2
2023-04-08T01:39:29.000Z,5.3
2023-04-08T01:40:46.473Z,5.3
2023-04-08T01:42:02.000Z,5.2
2023-04-08T01:43:18.000Z,4.8
2023-04-08T01:44:33.000Z,5.3
2023-04-08T01:45:49.000Z,4.9
2023-04-08T01:47:04.000Z,5.2
2023-04-08T01:48:19.000Z,5
2023-04-08T01:49:36.000Z,5.5
2023-04-08T01:50:52.000Z,5.5
2023-04-08T01:52:08.000Z,5.3
2023-04-08T01:53:25.206Z,5
2023-04-08T01:54:41.000Z,5
2023-04-08T01:55:57.000Z,5
2023-04-08T01:57:13.000Z,4.8
2023-04-08T01:58:30.000Z,5.7
2023-04-08T01:59:46.000Z,5.3
2023-04-08T02:01:02.000Z,5.3
2023-04-08T02:02:18.000Z,4.8
2023-04-08T02:03:35.000Z,5.1
2023-04-08T02:04:50.000Z,5
2023-04-08T02:06:06.000Z,5.1
2023-04-08T02:07:23.000Z,5.4
2023-04-08T02:08:39.000Z,5
2023-04-08T02:09:55.000Z,4.7
2023-04-08T02:11:12.000Z,5
2023-04-08T02:12:28.000Z,5
2023-04-08T02:13:43.000Z,5.1
2023-04-08T02:14:58.000Z,4.8
2023-04-08T02:16:15.000Z,4.6
2023-04-08T02:17:31.000Z,4.6
2023-04-08T02:18:46.000Z,4.8
2023-04-08T02:20:02.340Z,5.1
2023-04-08T02:21:18.000Z,5.2
2023-04-08T02:22:34.923Z,4.5
2023-04-08T02:23:50.000Z,4.8
2023-04-08T02:25:07.000Z,5.1
2023-04-08T02:26:23.810Z,4.7
2023-04-08T02:27:39.000Z,4.9
2023-04-08T02:28:56.000Z,4.5
2023-04-08T02:30:12.000Z,4.7
2023-04-08T02:31:28.953Z,4.1
2023-04-08T02:32:44.000Z,4.6
2023-04-08T02:34:01.000Z,4.1
2023-04-08T02:35:17.000Z,4.4
2023-04-08T02:36:32.000Z,4.3
2023-04-08T02:37:49.000Z,4.4
2023-04-08T02:39:05.000Z,4.1
2023-04-08T02:40:21.000Z,4.3
2023-04-08T02:41:38.000Z,4.5
2023-04-08T02:42:53.000Z,4.3
2023-04-08T02:44:09.000Z,3.9
2023-04-08T02:45:24.000Z,4.5
2023-04-08T02:46:40.000Z,4.2
2023-04-08T02:47:55.000Z,4
2023-04-08T02:49:10.000Z,4.2
2023-04-08T02:50:27.000Z,3.9
2023-04-08T02:51:43.000Z,4.1
2023-04-08T02:52:59.000Z,4.4
2023-04-08T02:54:16.000Z,3.8
2023-04-08T02:55:32.000Z,4.5
2023-04-08T02:56:48.000Z,4.6
2023-04-08T02:58:04.000Z,4.5
2023-04-08T02:59:21.000Z,5.1
2023-04-08T03:00:37.682Z,4.3
2023-04-08T03:01:53.000Z,4.9
2023-04-08T03:03:10.000Z,4.3
2023-04-08T03:04:26.000Z,5
2023-04-08T03:05:41.000Z,4.3
2023-04-08T03:06:57.000Z,4.8
2023-04-08T03:08:14.000Z,4.8
2023-04-08T03:09:30.720Z,4.8
2023-04-08T03:10:46.000Z,4.7
2023-04-08T03:12:03.000Z,6
2023-04-08T03:13:19.000Z,4.7
2023-04-08T03:14:34.000Z,4.3
2023-04-08T03:15:49.000Z,4.5
2023-04-08T03:17:06.000Z,4.8
2023-04-08T03:18:21.000Z,4.6
2023-04-08T03:19:36.000Z,4.5
2023-04-08T03:20:53.000Z,5
2023-04-08T03:22:09.000Z,4.6
2023-04-08T03:23:25.000Z,4.6
2023-04-08T03:24:41.000Z,4.5
2023-04-08T03:25:58.000Z,4.7
2023-04-08T03:27:14.000Z,4.3
2023-04-08T03:28:30.000Z,5.1
2023-04-08T03:29:47.000Z,4.9
2023-04-08T03:31:03.000Z,4.7
2023-04-08T03:32:19.000Z,5.1
2023-04-08T03:33:36.000Z,4.8
2023-04-08T03:34:52.538Z,4.8
2023-04-08T03:36:07.000Z,4.7
2023-04-08T03:37:23.000Z,5.4
2023-04-08T03:38:40.000Z,5.1
2023-04-08T03:39:56.000Z,4.7
2023-04-08T03:41:12.000Z,5.1
2023-04-08T03:42:29.000Z,5.1
2023-04-08T03:43:45.000Z,5.7
2023-04-08T03:45:00.000Z,5.2
2023-04-08T03:46:15.000Z,5.1
2023-04-08T03:47:32.504Z,5.4
2023-04-08T03:48:48.000Z,5
2023-04-08T03:50:03.000Z,4.9
2023-04-08T03:51:19.000Z,5
2023-04-08T03:52:35.000Z,5.1
2023-04-08T03:53:51.000Z,4.8
2023-04-08T03:55:08.000Z,5.2
2023-04-08T03:56:24.000Z,4.5
2023-04-08T03:57:40.000Z,5
2023-04-08T03:58:56.000Z,4.5
2023-04-08T04:00:13.000Z,4.8
2023-04-08T04:01:29.669Z,4.6
2023-04-08T04:02:45.000Z,4.8
2023-04-08T04:04:02.000Z,5.1
2023-04-08T04:05:18.000Z,5.1
2023-04-08T04:06:34.000Z,4.8
2023-04-08T04:07:49.000Z,4.7
2023-04-08T04:09:06.000Z,4.1
2023-04-08T04:10:22.000Z,4.5
2023-04-08T04:11:38.000Z,4.6
2023-04-08T04:12:55.281Z,4.1
2023-04-08T04:14:11.000Z,4.6
2023-04-08T04:15:27.000Z,4.5
2023-04-08T04:16:43.168Z,4.6
2023-04-08T04:17:58.000Z,4.5
2023-04-08T04:19:13.000Z,4.4
2023-04-08T04:20:28.000Z,4.6
2023-04-08T04:21:45.000Z,4.6
2023-04-08T04:23:01.000Z,4.6
2023-04-08T04:24:17.000Z,4.7
2023-04-08T04:25:33.000Z,4.7
2023-04-08T04:26:50.000Z,5
2023-04-08T04:28:06.000Z,5.1
2023-04-08T04:29:22.000Z,4.2
2023-04-08T04:30:38.000Z,4.8
2023-04-08T04:31:55.000Z,4.3
2023-04-08T04:33:11.000Z,4
2023-04-08T04:34:27.847Z,4.2
2023-04-08T04:35:43.000Z,4.4
2023-04-08T04:36:59.000Z,4.7
2023-04-08T04:38:15.000Z,4.7
2023-04-08T04:39:31.000Z,5
2023-04-08T04:40:47.000Z,4.7
2023-04-08T04:42:04.000Z,4.4
2023-04-08T04:43:20.000Z,4.4
2023-04-08T04:44:36.748Z,4.9
2023-04-08T04:45:51.000Z,4.7
2023-04-08T04:47:07.000Z,4.9
2023-04-08T04:48:23.000Z,4.4
2023-04-08T04:49:39.000Z,4.4
2023-04-08T04:50:54.992Z,5.1
2023-04-08T04:52:09.000Z,4.7
2023-04-08T04:53:26.000Z,4.7
2023-04-08T04:54:42.000Z,4.8
2023-04-08T04:55:58.000Z,5.1
2023-04-08T04:57:14.000Z,4.8
2023-04-08T04:58:31.000Z,5.6
2023-04-08T04:59:47.000Z,4.6
2023-04-08T05:01:03.000Z,4.5
2023-04-08T05:02:19.000Z,4.3
2023-04-08T05:03:36.000Z,4.6
2023-04-08T05:04:52.000Z,4.9
2023-04-08T05:06:08.000Z,4.4
2023-04-08T05:07:24.000Z,4.5
2023-04-08T05:08:40.000Z,4.5
2023-04-08T05:09:56.000Z,4.3
2023-04-08T05:11:12.000Z,4.6
2023-04-08T05:13:44.000Z,4.6
2023-04-08T05:15:01.460Z,5.1
2023-04-08T05:16:17.000Z,4.7
2023-04-08T05:17:33.000Z,4.6
2023-04-08T05:18:48.000Z,4.5
2023-04-08T05:20:04.000Z,4.5
2023-04-08T05:21:19.000Z,4.8
2023-04-08T05:22:34.000Z,4.8
2023-04-08T05:23:50.000Z,4.4
2023-04-08T05:25:07.000Z,5.1
2023-04-08T05:26:23.000Z,4.8
2023-04-08T05:27:39.000Z,4.6
2023-04-08T05:28:56.116Z,4.3
2023-04-08T05:30:12.000Z,4.3
2023-04-08T05:31:28.000Z,4.3
2023-04-08T05:32:44.000Z,4.2
2023-04-08T05:34:00.000Z,4.2
2023-04-08T05:35:17.294Z,4.2
2023-04-08T05:36:33.000Z,4.7
2023-04-08T05:37:49.000Z,4.8
2023-04-08T05:39:04.000Z,4.3
2023-04-08T05:40:21.214Z,4.6
2023-04-08T05:41:37.000Z,5.1
2023-04-08T05:42:53.694Z,4.6
2023-04-08T05:44:09.000Z,4.7
2023-04-08T05:45:26.182Z,4.1
2023-04-08T05:46:42.000Z,4.5
2023-04-08T05:47:58.632Z,4.1
2023-04-08T05:49:14.000Z,4.2
2023-04-08T05:50:30.000Z,4.6
2023-04-08T05:51:47.000Z,4.3
2023-04-08T05:53:03.000Z,4.1
2023-04-08T05:54:19.000Z,4.2
2023-04-08T05:55:34.000Z,4.5
2023-04-08T05:56:51.000Z,4.1
2023-04-08T05:58:07.000Z,4.5
2023-04-08T05:59:23.000Z,4.4
2023-04-08T06:00:39.000Z,4.2
2023-04-08T06:01:55.000Z,4.3
2023-04-08T06:03:12.000Z,4.5
2023-04-08T06:04:28.000Z,4
2023-04-08T06:05:44.907Z,4.4
2023-04-08T06:07:01.161Z,4
2023-04-08T06:08:17.000Z,4.4
2023-04-08T06:09:33.000Z,4.4
2023-04-08T06:10:49.000Z,4
2023-04-08T06:12:04.000Z,3.9
2023-04-08T06:13:21.000Z,3.7
2023-04-08T06:14:37.000Z,4.4
2023-04-08T06:15:53.000Z,4.4
2023-04-08T06:17:09.000Z,4.4
2023-04-08T06:18:26.000Z,4.9
2023-04-08T06:19:42.508Z,4.1
2023-04-08T06:20:58.968Z,4.6
2023-04-08T06:22:14.000Z,4.2
2023-04-08T06:23:30.000Z,4.7
2023-04-08T06:24:47.000Z,4.6
2023-04-08T06:26:03.000Z,4.4
2023-04-08T06:27:19.000Z,4.5
2023-04-08T06:28:35.153Z,4.8
2023-04-08T06:29:51.000Z,4.9
2023-04-08T06:31:07.000Z,4.5
2023-04-08T06:32:23.000Z,4.8
2023-04-08T06:33:39.000Z,4.2
2023-04-08T06:34:56.000Z,4.2
2023-04-08T06:36:12.000Z,4.2
2023-04-08T06:37:28.000Z,4.4
2023-04-08T06:38:44.000Z,4.8
2023-04-08T06:40:01.000Z,5
2023-04-08T06:41:17.000Z,3.9
2023-04-08T06:42:33.000Z,4.2
2023-04-08T06:43:49.000Z,4.2
2023-04-08T06:45:04.000Z,4.3
2023-04-08T06:46:21.000Z,4.5
2023-04-08T06:47:37.000Z,4.3
2023-04-08T06:48:53.000Z,4.5
2023-04-08T06:50:09.000Z,4.2
2023-04-08T06:51:26.000Z,3.8
2023-04-08T06:52:42.000Z,4.4
2023-04-08T06:53:58.000Z,4.5
2023-04-08T06:55:14.000Z,4.6
2023-04-08T06:56:31.000Z,3.8
2023-04-08T06:59:02.000Z,4.2
2023-04-08T07:00:18.021Z,7.2
2023-04-08T07:01:34.000Z,4.7
2023-04-08T07:02:50.000Z,4.6
2023-04-08T07:04:06.000Z,4.5
2023-04-08T07:05:22.000Z,3.9
2023-04-08T07:06:38.000Z,4.2
2023-04-08T07:07:55.000Z,4.6
2023-04-08T07:09:11.000Z,4.4
2023-04-08T07:10:27.000Z,4.4
2023-04-08T07:11:43.000Z,4.3
2023-04-08T07:13:00.000Z,4.4
2023-04-08T07:14:16.000Z,4.5
2023-04-08T07:15:32.000Z,4.4
2023-04-08T07:16:48.080Z,4.5
2023-04-08T07:18:04.000Z,4.3
2023-04-08T07:19:20.000Z,4.1
2023-04-08T07:21:53.012Z,4.4
2023-04-08T07:23:09.000Z,4.1
2023-04-08T07:24:25.000Z,4.2
2023-04-08T07:25:41.000Z,4.6
2023-04-08T07:26:57.000Z,4.4
2023-04-08T07:28:13.000Z,5
2023-04-08T07:29:30.000Z,4.2
2023-04-08T07:30:46.000Z,4.4
2023-04-08T07:32:02.653Z,4.1
2023-04-08T07:33:17.000Z,4.5
2023-04-08T07:34:34.000Z,4.6
2023-04-08T07:35:50.600Z,4.3
2023-04-08T07:37:06.853Z,4.3
2023-04-08T07:38:22.000Z,4.1
2023-04-08T07:39:39.000Z,4.7
2023-04-08T07:40:55.000Z,4.2
2023-04-08T07:42:11.000Z,4.2
2023-04-08T07:43:27.000Z,4.3
2023-04-08T07:44:44.000Z,4.8
2023-04-08T07:46:00.000Z,4.9
2023-04-08T07:47:16.000Z,4.7
2023-04-08T07:49:48.000Z,4.7
2023-04-08T07:51:04.000Z,4.4
2023-04-08T07:52:20.000Z,4
2023-04-08T07:53:36.000Z,4.6
2023-04-08T07:54:52.000Z,4.2
2023-04-08T07:56:09.000Z,4.4
2023-04-08T07:57:25.000Z,4.6
2023-04-08T07:58:41.000Z,4.6
2023-04-08T07:59:58.077Z,4.6
2023-04-08T08:01:14.000Z,4.8
2023-04-08T08:02:30.000Z,4.3
2023-04-08T08:03:46.000Z,4.8
2023-04-08T08:05:02.000Z,4.3
2023-04-08T08:06:18.000Z,5
2023-04-08T08:07:34.494Z,5
2023-04-08T08:08:50.000Z,4.7
2023-04-08T08:10:06.000Z,4.3
2023-04-08T08:11:22.000Z,4.5
2023-04-08T08:12:39.000Z,4.9
2023-04-08T08:13:55.000Z,3.9
2023-04-08T08:15:11.000Z,4.1
2023-04-08T08:16:27.000Z,4.6
2023-04-08T08:17:44.000Z,4.7
2023-04-08T08:19:00.000Z,4.5
2023-04-08T08:20:16.000Z,4.4
2023-04-08T08:21:32.000Z,4.4
2023-04-08T08:22:49.000Z,4.1
2023-04-08T08:24:04.000Z,4.6
2023-04-08T08:25:20.000Z,4.2
2023-04-08T08:26:37.005Z,4.4
2023-04-08T08:27:52.000Z,5.1
2023-04-08T08:29:09.000Z,5.2
2023-04-08T08:30:25.000Z,4.8
2023-04-08T08:31:41.938Z,5.1
2023-04-08T08:32:58.178Z,4.2
2023-04-08T08:34:14.000Z,4.1
2023-04-08T08:35:30.000Z,4.6
2023-04-08T08:36:46.882Z,5
2023-04-08T08:38:02.000Z,5.3
2023-04-08T08:39:19.000Z,4.8
2023-04-08T08:40:34.000Z,5
2023-04-08T08:41:50.000Z,5.4
2023-04-08T08:43:06.000Z,5.2
2023-04-08T08:44:23.000Z,5.2
2023-04-08T08:45:39.000Z,5.2
2023-04-08T08:46:55.000Z,4.8
2023-04-08T08:48:11.000Z,4.8
2023-04-08T08:49:27.000Z,4.9
2023-04-08T08:50:42.506Z,5.2
2023-04-08T08:53:14.000Z,5.4
2023-04-08T08:54:30.000Z,5.2
2023-04-08T08:55:47.000Z,5.9
2023-04-08T08:57:03.000Z,5.6
2023-04-08T08:58:19.000Z,5.4
2023-04-08T08:59:35.000Z,5.8
2023-04-08T09:00:52.000Z,6.3
2023-04-08T09:02:08.000Z,5.6
2023-04-08T09:03:24.000Z,5.7
2023-04-08T09:04:40.000Z,5.7
2023-04-08T09:05:57.000Z,5.5
2023-04-08T09:07:12.000Z,6.3
2023-04-08T09:08:28.000Z,5.3
2023-04-08T09:09:44.000Z,6.2
2023-04-08T09:11:01.000Z,6.5
2023-04-08T09:12:17.000Z,6.6
2023-04-08T09:13:33.000Z,6.3
2023-04-08T09:14:49.000Z,6.2
2023-04-08T09:16:05.000Z,6.4
2023-04-08T09:17:21.000Z,6.3
2023-04-08T09:18:36.000Z,6.8
2023-04-08T09:19:51.000Z,6.5
2023-04-08T09:21:06.000Z,6.5
2023-04-08T09:22:23.000Z,6.1
2023-04-08T09:23:39.000Z,6.5
2023-04-08T09:24:55.000Z,6.3
2023-04-08T09:26:11.000Z,6.3
2023-04-08T09:27:28.000Z,6.7
2023-04-08T09:28:44.000Z,6.2
2023-04-08T09:31:16.000Z,6.5
2023-04-08T09:32:33.000Z,6.7
2023-04-08T09:33:49.000Z,6.6
2023-04-08T09:35:05.775Z,6.4
2023-04-08T09:36:21.000Z,7.2
2023-04-08T09:37:37.000Z,6.5
2023-04-08T09:38:53.000Z,7.1
2023-04-08T09:40:09.000Z,6.7
2023-04-08T09:41:25.000Z,6.9
2023-04-08T09:43:58.000Z,6.4
2023-04-08T09:45:13.000Z,6.8
2023-04-08T09:46:28.000Z,6.8
2023-04-08T09:47:44.000Z,6.6
2023-04-08T09:49:01.000Z,6.3
2023-04-08T09:50:17.000Z,6.5
2023-04-08T09:51:33.000Z,7
2023-04-08T09:52:49.000Z,6.5
2023-04-08T09:54:06.000Z,6.2
2023-04-08T09:55:22.000Z,6.1
2023-04-08T09:56:38.000Z,6.2
2023-04-08T09:57:54.000Z,7.2
2023-04-08T09:59:10.000Z,6.5
2023-04-08T10:00:25.000Z,6.6
2023-04-08T10:01:41.000Z,6.8
2023-04-08T10:02:57.000Z,6.4
2023-04-08T10:04:13.000Z,7.5
2023-04-08T10:05:30.000Z,6.6
2023-04-08T10:06:46.000Z,6.8
2023-04-08T10:08:02.000Z,6.5
2023-04-08T10:09:18.000Z,6.9
2023-04-08T10:10:35.000Z,6.1
2023-04-08T10:11:51.000Z,7
2023-04-08T10:13:07.000Z,6.5
2023-04-08T10:14:23.000Z,13.8
2023-04-08T10:15:40.000Z,11.7
2023-04-08T10:16:55.000Z,15.8
2023-04-08T10:18:11.000Z,7.6
2023-04-08T10:19:27.000Z,6.8
2023-04-08T10:22:00.000Z,6.2
2023-04-08T10:23:16.000Z,6.5
2023-04-08T10:24:32.000Z,6
2023-04-08T10:25:48.000Z,6.2
2023-04-08T10:27:05.000Z,6.3
2023-04-08T10:28:21.000Z,6.1
2023-04-08T10:29:37.000Z,5.9
2023-04-08T10:30:53.000Z,6.1
2023-04-08T10:32:10.389Z,6.4
2023-04-08T10:33:25.000Z,6.3
2023-04-08T10:34:41.000Z,6
2023-04-08T10:35:57.000Z,5.9
2023-04-08T10:37:14.332Z,6
2023-04-08T10:38:30.000Z,6
2023-04-08T10:39:46.000Z,6.3
2023-04-08T10:41:01.000Z,6.3
2023-04-08T10:42:17.000Z,6.2
2023-04-08T10:43:33.550Z,5.4
2023-04-08T10:44:49.000Z,6.2
2023-04-08T10:46:05.000Z,6.1
2023-04-08T10:47:21.000Z,6.9
2023-04-08T10:48:37.000Z,5.7
2023-04-08T10:49:52.000Z,5.7
2023-04-08T10:51:08.000Z,5.9
2023-04-08T10:52:24.000Z,5.7
2023-04-08T10:53:41.000Z,5.8
2023-04-08T10:54:57.000Z,6.7
2023-04-08T10:56:13.000Z,5.9
2023-04-08T10:57:29.000Z,5.9
2023-04-08T11:00:02.628Z,6.7
2023-04-08T11:01:18.861Z,5.6
2023-04-08T11:02:34.000Z,5.7
2023-04-08T11:03:51.000Z,5.6
2023-04-08T11:05:07.000Z,5.9
2023-04-08T11:06:22.000Z,5.6
2023-04-08T11:07:38.000Z,5.9
2023-04-08T11:08:55.000Z,6.1
2023-04-08T11:10:11.000Z,5.8
2023-04-08T11:11:27.000Z,5.5
2023-04-08T11:12:43.000Z,5.7
2023-04-08T11:13:59.000Z,6.2
2023-04-08T11:15:15.000Z,6.3
2023-04-08T11:16:30.000Z,5.8
2023-04-08T11:17:45.000Z,6.7
2023-04-08T11:19:01.000Z,6.4
2023-04-08T11:20:18.000Z,5.8
2023-04-08T11:21:34.000Z,6
2023-04-08T11:22:50.000Z,6.2
2023-04-08T11:24:06.000Z,5.6
2023-04-08T11:25:23.000Z,5.7
2023-04-08T11:26:39.000Z,5.7
2023-04-08T11:27:55.000Z,5.8
2023-04-08T11:29:11.098Z,6.2
2023-04-08T11:30:26.000Z,6.3
2023-04-08T11:31:42.000Z,5.8
2023-04-08T11:32:58.817Z,6.2
2023-04-08T11:34:14.000Z,5.2
2023-04-08T11:35:31.000Z,5.7
2023-04-08T11:36:47.496Z,5.5
2023-04-08T11:38:03.753Z,6.1
2023-04-08T11:39:19.000Z,5.6
2023-04-08T11:40:36.220Z,7.2
2023-04-08T11:41:52.000Z,6.7
2023-04-08T11:43:08.000Z,6
2023-04-08T11:44:24.000Z,6.2
2023-04-08T11:45:41.135Z,6.8
2023-04-08T11:46:56.000Z,6.1
2023-04-08T11:48:12.000Z,6.3
2023-04-08T11:49:28.854Z,5.3
2023-04-08T11:50:44.000Z,5.4
2023-04-08T11:52:01.000Z,5.7
2023-04-08T11:53:17.000Z,5.7
2023-04-08T11:54:33.000Z,5.3
2023-04-08T11:55:48.000Z,5.9
2023-04-08T11:57:04.000Z,6
2023-04-08T11:58:20.540Z,6.4
2023-04-08T11:59:36.000Z,6.4
2023-04-08T12:00:52.000Z,6
2023-04-08T12:02:08.000Z,6.3
2023-04-08T12:03:25.000Z,6.2
2023-04-08T12:04:41.000Z,6.1
2023-04-08T12:05:57.000Z,6.5
2023-04-08T12:07:12.000Z,6.2
2023-04-08T12:08:28.000Z,6.2
2023-04-08T12:09:44.000Z,7.2
2023-04-08T12:11:00.914Z,5.7
2023-04-08T12:12:16.000Z,5.5
2023-04-08T12:13:33.000Z,6.3
2023-04-08T12:16:05.000Z,6.9
2023-04-08T12:17:21.000Z,6.8
2023-04-08T12:18:38.311Z,6.6
2023-04-08T12:19:54.000Z,6.3
2023-04-08T12:21:10.000Z,6.6
2023-04-08T12:22:26.000Z,6
2023-04-08T12:23:42.000Z,6.3
2023-04-08T12:24:58.000Z,6.2
2023-04-08T12:26:14.702Z,6.4
2023-04-08T12:27:30.000Z,6.2
2023-04-08T12:28:47.190Z,6.3
2023-04-08T12:30:03.000Z,6.1
2023-04-08T12:31:19.000Z,7.9
2023-04-08T12:32:35.000Z,7.5
2023-04-08T12:33:51.000Z,7.1
2023-04-08T12:35:08.000Z,7.5
2023-04-08T12:36:24.000Z,6.1
2023-04-08T12:37:40.828Z,6.6
2023-04-08T12:38:56.000Z,6.5
2023-04-08T12:40:13.000Z,6.5
2023-04-08T12:41:28.000Z,6.9
2023-04-08T12:42:44.000Z,6.5
2023-04-08T12:44:00.000Z,7
2023-04-08T12:45:16.000Z,6.8
2023-04-08T12:46:33.000Z,6.8
2023-04-08T12:47:49.000Z,6.6
2023-04-08T12:49:05.000Z,6.5
2023-04-08T12:50:21.000Z,7.1
2023-04-08T12:51:38.403Z,6.9
2023-04-08T12:52:54.000Z,7.3
2023-04-08T12:54:10.000Z,6.6
2023-04-08T12:55:26.000Z,6.4
2023-04-08T12:56:43.000Z,6.3
2023-04-08T12:57:58.000Z,6.6
2023-04-08T12:59:14.000Z,7.5
2023-04-08T13:00:30.000Z,6.8
2023-04-08T13:01:47.000Z,7.2
2023-04-08T13:03:03.000Z,7.6
2023-04-08T13:04:19.000Z,7.3
2023-04-08T13:05:35.972Z,8.2
2023-04-08T13:06:52.212Z,7.1
2023-04-08T13:08:08.000Z,7.2
2023-04-08T13:09:24.000Z,6.5
2023-04-08T13:10:40.000Z,7.6
2023-04-08T13:11:56.000Z,7.4
2023-04-08T13:13:13.000Z,7.6
2023-04-08T13:14:28.693Z,7.9
2023-04-08T13:15:44.000Z,7
2023-04-08T13:17:00.000Z,7.3
2023-04-08T13:18:17.000Z,7.7
2023-04-08T13:19:33.000Z,7.1
2023-04-08T13:20:49.000Z,7.7
2023-04-08T13:22:05.000Z,6.8
2023-04-08T13:23:22.000Z,8.1
2023-04-08T13:24:38.000Z,7.2
2023-04-08T13:25:54.000Z,7.8
2023-04-08T13:27:10.000Z,6.9
2023-04-08T13:28:26.000Z,7.2
2023-04-08T13:29:43.000Z,6.9
2023-04-08T13:30:58.000Z,7.4
2023-04-08T13:32:14.000Z,7.6
2023-04-08T13:33:31.148Z,6.7
2023-04-08T13:34:47.000Z,6.8
2023-04-08T13:36:03.000Z,7
2023-04-08T13:37:19.000Z,7.1
2023-04-08T13:38:35.000Z,8
2023-04-08T13:39:52.306Z,8.1
2023-04-08T13:41:08.000Z,7.1
2023-04-08T13:42:24.000Z,6.8
2023-04-08T13:43:40.043Z,7
2023-04-08T13:44:55.289Z,8.4
2023-04-08T13:46:10.000Z,7.1
2023-04-08T13:47:25.000Z,7.7
2023-04-08T13:48:41.000Z,7.7
2023-04-08T13:49:58.000Z,7.4
2023-04-08T13:51:14.000Z,7.9
2023-04-08T13:52:30.000Z,7.9
2023-04-08T13:53:46.000Z,7.4
2023-04-08T13:55:02.000Z,7.9
2023-04-08T13:56:19.000Z,8.2
2023-04-08T13:57:35.000Z,7.4
2023-04-08T13:58:51.000Z,7.7
2023-04-08T14:00:07.000Z,7.3
2023-04-08T14:01:24.000Z,7.5
2023-04-08T14:02:40.000Z,8.1
2023-04-08T14:03:55.000Z,7.9
2023-04-08T14:05:11.000Z,9.3
2023-04-08T14:06:28.000Z,8.2
2023-04-08T14:07:44.000Z,8.3
2023-04-08T14:09:00.000Z,7.8
2023-04-08T14:10:16.000Z,7.8
2023-04-08T14:11:32.000Z,8.5
2023-04-08T14:12:49.000Z,8.9
2023-04-08T14:14:05.000Z,7.5
2023-04-08T14:15:21.000Z,7.9
2023-04-08T14:16:37.000Z,8.3
2023-04-08T14:17:54.000Z,8.2
2023-04-08T14:19:10.000Z,8.4
2023-04-08T14:20:25.000Z,7.9
2023-04-08T14:21:41.000Z,8.4
2023-04-08T14:22:58.000Z,8.4
2023-04-08T14:24:14.000Z,8.6
2023-04-08T14:25:30.000Z,8.9
2023-04-08T14:26:46.000Z,8.2
2023-04-08T14:28:03.000Z,8.3
2023-04-08T14:29:19.000Z,8.3
2023-04-08T14:30:35.000Z,8.2
2023-04-08T14:31:51.000Z,8.5
2023-04-08T14:33:07.000Z,8.8
2023-04-08T14:34:24.443Z,9.4
2023-04-08T14:35:40.000Z,9.6
2023-04-08T14:36:55.000Z,9.7
2023-04-08T14:38:11.000Z,9.7
2023-04-08T14:39:28.000Z,9.8
2023-04-08T14:40:44.000Z,10.7
2023-04-08T14:42:00.000Z,10.4
2023-04-08T14:43:16.000Z,10.9
2023-04-08T14:44:33.000Z,11.1
2023-04-08T14:45:49.000Z,10.1
2023-04-08T14:47:05.000Z,10.1
2023-04-08T14:48:21.000Z,10.3
2023-04-08T14:49:38.000Z,9.6
2023-04-08T14:50:54.000Z,9.7
2023-04-08T14:52:10.000Z,8.5
2023-04-08T14:53:25.000Z,9.4
2023-04-08T14:54:41.000Z,9.4
2023-04-08T14:55:58.000Z,8.7
2023-04-08T14:57:14.000Z,8.9
2023-04-08T14:58:30.000Z,9
2023-04-08T15:01:03.000Z,9.1
2023-04-08T15:02:19.000Z,9.2
2023-04-08T15:03:35.000Z,9.8
2023-04-08T15:04:51.000Z,9.7
2023-04-08T15:06:08.000Z,8.4
2023-04-08T15:07:24.549Z,9.2
2023-04-08T15:08:40.794Z,8.8
2023-04-08T15:09:55.000Z,9.4
2023-04-08T15:11:12.000Z,8.9
2023-04-08T15:12:28.000Z,9.3
2023-04-08T15:13:44.000Z,9.2
2023-04-08T15:15:00.000Z,9.2
2023-04-08T15:16:16.000Z,8.8
2023-04-08T15:17:33.000Z,8.6
2023-04-08T15:18:49.000Z,8.9
2023-04-08T15:20:05.000Z,9.6
2023-04-08T15:21:22.138Z,9.4
2023-04-08T15:22:38.000Z,9.6
2023-04-08T15:25:10.829Z,8.8
2023-04-08T15:26:25.000Z,9
2023-04-08T15:27:42.000Z,9.5
2023-04-08T15:28:58.000Z,9.1
2023-04-08T15:30:13.000Z,9.7
2023-04-08T15:31:29.000Z,10.8
2023-04-08T15:32:46.000Z,9.4
2023-04-08T15:34:02.000Z,9.7
2023-04-08T15:35:18.000Z,9.4
2023-04-08T15:36:34.000Z,9.3
2023-04-08T15:37:50.000Z,10.3
2023-04-08T15:39:07.000Z,9.9
2023-04-08T15:40:23.000Z,9.7
2023-04-08T15:41:39.000Z,10.3
2023-04-08T15:42:55.000Z,9
2023-04-08T15:44:12.000Z,10.4
2023-04-08T15:45:28.000Z,10
2023-04-08T15:46:43.000Z,9.9
2023-04-08T15:48:00.098Z,10.2
2023-04-08T15:49:16.000Z,10.4
2023-04-08T15:51:48.000Z,10.5
2023-04-08T15:53:04.000Z,10.3
2023-04-08T15:54:21.000Z,9.6
2023-04-08T15:55:37.000Z,9.5
2023-04-08T15:56:53.000Z,9.8
2023-04-08T15:58:09.000Z,10.1
2023-04-08T15:59:25.000Z,10.5
2023-04-08T16:00:41.000Z,10.3
2023-04-08T16:01:56.000Z,8.8
2023-04-08T16:03:11.952Z,9.7
2023-04-08T16:04:26.000Z,9.2
2023-04-08T16:05:43.000Z,10.6
2023-04-08T16:06:59.000Z,10.4
2023-04-08T16:08:15.000Z,10.6
2023-04-08T16:09:31.000Z,9.5
2023-04-08T16:10:48.000Z,10.2
2023-04-08T16:12:04.000Z,10.1
2023-04-08T16:13:20.000Z,10.5
2023-04-08T16:14:36.000Z,9.4
2023-04-08T16:15:53.000Z,8.9
2023-04-08T16:17:09.000Z,9.5
2023-04-08T16:18:25.000Z,9.7
2023-04-08T16:19:41.000Z,9.4
2023-04-08T16:20:57.000Z,9.4
2023-04-08T16:22:13.000Z,11.3
2023-04-08T16:23:29.000Z,9.8
2023-04-08T16:24:45.000Z,9.6
2023-04-08T16:26:02.187Z,9.4
2023-04-08T16:27:18.000Z,9.2
2023-04-08T16:28:34.657Z,10.5
2023-04-08T16:29:49.000Z,9.8
2023-04-08T16:31:05.165Z,10.1
2023-04-08T16:32:21.000Z,9.3
2023-04-08T16:33:37.000Z,10.1
2023-04-08T16:34:52.000Z,9.3
2023-04-08T16:36:07.000Z,8.2
2023-04-08T16:37:24.000Z,8.7
2023-04-08T16:38:40.000Z,9
2023-04-08T16:39:56.000Z,9.2
2023-04-08T16:41:12.000Z,9.5
2023-04-08T16:42:29.000Z,10.4
2023-04-08T16:43:45.542Z,11
2023-04-08T16:45:01.000Z,10.7
2023-04-08T16:46:17.000Z,10
2023-04-08T16:47:33.000Z,10.1
2023-04-08T16:48:50.000Z,10.2
2023-04-08T16:50:06.000Z,9.8
2023-04-08T16:51:22.943Z,10.7
2023-04-08T16:52:37.000Z,10.5
2023-04-08T16:53:54.000Z,10.3
2023-04-08T16:55:10.000Z,10.8
2023-04-08T16:56:26.871Z,10.3
2023-04-08T16:57:42.000Z,10.7
2023-04-08T16:58:59.000Z,9.7
2023-04-08T17:00:15.000Z,10.5
2023-04-08T17:01:31.000Z,10.9
2023-04-08T17:02:47.000Z,11
2023-04-08T17:04:04.000Z,10.1
2023-04-08T17:05:20.000Z,11.4
2023-04-08T17:06:36.756Z,9.2
2023-04-08T17:07:52.000Z,10.8
2023-04-08T17:09:07.000Z,9.8
2023-04-08T17:10:24.000Z,9.6
2023-04-08T17:11:40.000Z,9.1
2023-04-08T17:12:56.000Z,8.2
2023-04-08T17:14:12.000Z,10.3
2023-04-08T17:15:29.000Z,10
2023-04-08T17:16:45.000Z,10.3
2023-04-08T17:18:01.000Z,9.9
2023-04-08T17:19:17.000Z,10.1
2023-04-08T17:20:34.000Z,9.4
2023-04-08T17:21:50.000Z,10.7
2023-04-08T17:23:06.000Z,10.8
2023-04-08T17:24:22.000Z,10.2
2023-04-08T17:25:38.000Z,10
2023-04-08T17:26:54.000Z,12
2023-04-08T17:28:10.000Z,11.3
2023-04-08T17:29:26.000Z,11.3
2023-04-08T17:30:43.222Z,11.4
2023-04-08T17:31:58.000Z,12.8
2023-04-08T17:33:13.000Z,11.5
2023-04-08T17:34:29.000Z,11.6
2023-04-08T17:35:46.206Z,11.6
2023-04-08T17:37:02.000Z,11.3
2023-04-08T17:38:18.000Z,11.8
2023-04-08T17:39:33.000Z,12.2
2023-04-08T17:40:49.163Z,11.4
2023-04-08T17:42:05.000Z,12.1
2023-04-08T17:43:21.000Z,12.3
2023-04-08T17:44:37.860Z,12.8
2023-04-08T17:45:53.000Z,12.4